createdAt,value
2022-10-22T00:00:59.362Z,68.70
2022-10-22T00:06:01.933Z,68.90
2022-10-22T00:11:09.444Z,68.90
2022-10-22T00:16:13.656Z,69.00
2022-10-22T00:21:16.241Z,68.60
2022-10-22T00:26:19.804Z,68.50
2022-10-22T00:31:24.090Z,68.30
2022-10-22T00:36:26.664Z,68.60
2022-10-22T00:41:29.342Z,68.40
2022-10-22T00:46:33.275Z,68.50
2022-10-22T00:51:36.530Z,68.50
2022-10-22T00:56:39.162Z,69.00
2022-10-22T01:01:43.361Z,68.70
2022-10-22T01:06:45.944Z,68.80
2022-10-22T01:11:54.486Z,68.70
2022-10-22T01:17:01.276Z,68.70
2022-10-22T01:22:07.648Z,68.80
2022-10-22T01:27:17.261Z,68.80
2022-10-22T01:32:23.078Z,68.80
2022-10-22T01:37:26.905Z,68.50
2022-10-22T01:42:29.813Z,68.80
2022-10-22T01:47:41.578Z,68.60
2022-10-22T01:52:49.765Z,68.80
2022-10-22T01:57:54.828Z,69.00
2022-10-22T02:03:00.301Z,70.00
2022-10-22T02:08:05.808Z,70.00
2022-10-22T02:13:09.622Z,69.80
2022-10-22T02:18:13.787Z,68.60
2022-10-22T02:23:16.698Z,68.60
2022-10-22T02:28:23.733Z,68.50
2022-10-22T02:33:29.541Z,68.50
2022-10-22T02:38:32.935Z,69.80
2022-10-22T02:43:42.358Z,68.60
2022-10-22T02:48:46.355Z,69.60
2022-10-22T02:53:48.929Z,68.70
2022-10-22T02:58:51.768Z,69.60
2022-10-22T03:03:55.729Z,69.80
2022-10-22T03:08:58.338Z,68.30
2022-10-22T03:14:00.985Z,68.50
2022-10-22T03:19:04.900Z,68.30
2022-10-22T03:24:09.945Z,68.50
2022-10-22T03:29:13.231Z,68.30
2022-10-22T03:34:17.186Z,69.50
2022-10-22T03:39:20.940Z,69.50
2022-10-22T03:44:23.642Z,69.40
2022-10-22T03:49:27.554Z,69.50
2022-10-22T03:54:30.181Z,68.30
2022-10-22T03:59:35.264Z,69.50
2022-10-22T04:04:39.542Z,69.70
2022-10-22T04:09:42.648Z,69.30
2022-10-22T04:14:45.229Z,69.40
2022-10-22T04:19:49.165Z,68.50
2022-10-22T04:29:59.264Z,67.70
2022-10-22T04:35:03.253Z,68.10
2022-10-22T04:40:06.342Z,67.90
2022-10-22T04:45:09.585Z,67.80
2022-10-22T04:50:13.562Z,69.50
2022-10-22T04:55:16.416Z,69.20
2022-10-22T05:00:19.130Z,69.30
2022-10-22T05:05:23.069Z,69.30
2022-10-22T05:10:25.650Z,69.50
2022-10-22T05:15:28.238Z,69.30
2022-10-22T05:20:32.945Z,69.40
2022-10-22T05:25:37.840Z,68.20
2022-10-22T05:30:40.503Z,69.30
2022-10-22T05:35:46.767Z,69.40
2022-10-22T05:40:49.825Z,69.20
2022-10-22T05:45:52.454Z,69.10
2022-10-22T05:50:56.397Z,69.00
2022-10-22T05:56:00.762Z,69.00
2022-10-22T06:01:04.121Z,69.30
2022-10-22T06:06:13.303Z,69.20
2022-10-22T06:11:17.743Z,69.10
2022-10-22T06:16:20.414Z,69.40
2022-10-22T06:21:24.368Z,69.20
2022-10-22T06:26:27.453Z,69.30
2022-10-22T06:31:36.442Z,69.00
2022-10-22T06:41:48.556Z,69.00
2022-10-22T06:46:51.967Z,69.20
2022-10-22T06:51:56.265Z,69.00
2022-10-22T06:56:58.926Z,67.80
2022-10-22T07:02:01.529Z,68.70
2022-10-22T07:07:05.461Z,68.70
2022-10-22T07:12:08.327Z,69.00
2022-10-22T07:17:10.949Z,69.00
2022-10-22T07:22:14.918Z,68.90
2022-10-22T07:27:18.747Z,68.90
2022-10-22T07:32:23.842Z,68.70
2022-10-22T07:37:27.917Z,68.60
2022-10-22T07:47:38.182Z,68.70
2022-10-22T07:52:42.808Z,68.60
2022-10-22T07:57:45.765Z,68.50
2022-10-22T08:02:48.378Z,68.90
2022-10-22T08:07:52.343Z,68.70
2022-10-22T08:12:54.968Z,68.70
2022-10-22T08:17:57.621Z,68.70
2022-10-22T08:23:01.573Z,67.20
2022-10-22T08:28:04.253Z,67.10
2022-10-22T08:33:07.313Z,66.80
2022-10-22T08:38:11.238Z,67.00
2022-10-22T08:43:29.733Z,67.10
2022-10-22T08:48:39.314Z,67.40
2022-10-22T08:53:47.990Z,68.40
2022-10-22T08:58:53.269Z,68.50
2022-10-22T09:03:58.435Z,67.10
2022-10-22T09:09:03.382Z,67.10
2022-10-22T09:14:06.380Z,68.20
2022-10-22T09:19:15.202Z,67.20
2022-10-22T09:24:29.582Z,67.30
2022-10-22T09:29:35.501Z,67.20
2022-10-22T09:34:38.329Z,67.00
2022-10-22T09:39:44.893Z,67.10
2022-10-22T09:44:52.682Z,68.00
2022-10-22T09:50:05.094Z,68.20
2022-10-22T09:55:15.538Z,67.00
2022-10-22T10:00:19.894Z,67.00
2022-10-22T10:05:26.414Z,66.90
2022-10-22T10:10:34.807Z,68.00
2022-10-22T10:15:40.903Z,66.90
2022-10-22T10:20:49.793Z,66.60
2022-10-22T10:25:59.140Z,66.70
2022-10-22T10:31:06.029Z,66.60
2022-10-22T10:36:12.378Z,66.60
2022-10-22T10:41:19.672Z,66.50
2022-10-22T10:46:26.441Z,66.40
2022-10-22T10:51:35.141Z,66.60
2022-10-22T10:56:41.135Z,66.30
2022-10-22T11:01:46.985Z,66.40
2022-10-22T11:06:50.158Z,66.30
2022-10-22T11:11:56.276Z,66.40
2022-10-22T11:17:01.766Z,66.30
2022-10-22T11:22:07.022Z,66.10
2022-10-22T11:27:22.729Z,66.00
2022-10-22T11:32:26.427Z,66.00
2022-10-22T11:37:34.457Z,66.10
2022-10-22T11:42:39.302Z,65.60
2022-10-22T11:47:52.955Z,66.00
2022-10-22T11:53:03.867Z,65.90
2022-10-22T11:58:26.025Z,65.90
2022-10-22T12:03:40.257Z,65.80
2022-10-22T12:08:43.770Z,65.80
2022-10-22T12:14:07.343Z,65.60
2022-10-22T12:19:15.870Z,65.60
2022-10-22T12:24:19.994Z,65.40
2022-10-22T12:29:25.462Z,65.30
2022-10-22T12:34:29.652Z,65.30
2022-10-22T12:39:34.953Z,65.40
2022-10-22T12:44:37.573Z,65.20
2022-10-22T12:49:42.696Z,65.20
2022-10-22T12:54:45.961Z,65.00
2022-10-22T12:59:50.243Z,65.10
2022-10-22T13:05:12.473Z,65.10
2022-10-22T13:10:19.818Z,65.20
2022-10-22T13:15:24.218Z,65.10
2022-10-22T13:20:28.129Z,64.90
2022-10-22T13:25:31.911Z,64.80
2022-10-22T13:30:35.762Z,64.50
2022-10-22T13:35:39.689Z,64.60
2022-10-22T13:40:42.261Z,64.60
2022-10-22T13:45:45.281Z,64.30
2022-10-22T13:50:49.478Z,64.30
2022-10-22T13:55:52.058Z,64.30
2022-10-22T14:00:56.930Z,64.30
2022-10-22T14:06:01.170Z,64.20
2022-10-22T14:11:03.799Z,64.00
2022-10-22T14:16:07.606Z,64.00
2022-10-22T14:21:13.723Z,64.10
2022-10-22T14:26:20.982Z,63.90
2022-10-22T14:31:23.571Z,63.90
2022-10-22T14:36:27.955Z,63.80
2022-10-22T14:41:30.606Z,63.70
2022-10-22T14:46:33.702Z,63.60
2022-10-22T14:51:37.645Z,63.30
2022-10-22T14:56:40.253Z,63.10
2022-10-22T15:01:42.881Z,62.90
2022-10-22T15:06:46.801Z,62.50
2022-10-22T15:11:49.382Z,62.40
2022-10-22T15:16:52.023Z,61.00
2022-10-22T15:21:55.954Z,60.80
2022-10-22T15:26:58.545Z,60.40
2022-10-22T15:32:01.379Z,60.60
2022-10-22T15:37:06.575Z,60.50
2022-10-22T15:42:10.141Z,60.50
2022-10-22T15:47:12.812Z,60.60
2022-10-22T15:52:16.753Z,60.60
2022-10-22T15:57:19.326Z,60.80
2022-10-22T16:02:21.905Z,61.00
2022-10-22T16:07:25.986Z,61.50
2022-10-22T16:12:28.612Z,62.50
2022-10-22T16:17:31.189Z,62.70
2022-10-22T16:22:35.163Z,62.90
2022-10-22T16:27:39.152Z,63.30
2022-10-22T16:32:42.050Z,63.20
2022-10-22T16:37:46.637Z,63.50
2022-10-22T16:42:49.259Z,63.90
2022-10-22T16:47:51.854Z,63.70
2022-10-22T16:52:55.856Z,64.10
2022-10-22T16:57:58.551Z,64.10
2022-10-22T17:03:01.176Z,64.30
2022-10-22T17:08:05.221Z,64.40
2022-10-22T17:13:08.124Z,64.50
2022-10-22T17:18:10.774Z,64.70
2022-10-22T17:23:14.733Z,64.60
2022-10-22T17:28:17.335Z,64.80
2022-10-22T17:33:19.930Z,65.10
2022-10-22T17:38:23.849Z,65.20
2022-10-22T17:43:26.531Z,65.10
2022-10-22T17:48:29.109Z,65.40
2022-10-22T17:53:33.049Z,65.50
2022-10-22T17:58:36.583Z,65.80
2022-10-22T18:03:39.158Z,65.60
2022-10-22T18:08:43.205Z,65.60
2022-10-22T18:13:49.183Z,65.70
2022-10-22T18:18:52.928Z,65.80
2022-10-22T18:23:57.905Z,65.80
2022-10-22T18:29:00.649Z,66.00
2022-10-22T18:34:04.235Z,65.80
2022-10-22T18:39:10.494Z,66.00
2022-10-22T18:44:13.809Z,66.20
2022-10-22T18:49:18.995Z,66.00
2022-10-22T18:54:24.373Z,66.10
2022-10-22T18:59:27.789Z,66.10
2022-10-22T19:04:33.718Z,66.20
2022-10-22T19:09:37.709Z,66.40
2022-10-22T19:14:40.318Z,66.10
2022-10-22T19:19:44.797Z,66.30
2022-10-22T19:24:50.361Z,66.10
2022-10-22T19:29:52.929Z,66.40
2022-10-22T19:34:55.518Z,66.30
2022-10-22T19:40:00.573Z,66.20
2022-10-22T19:45:03.665Z,66.30
2022-10-22T19:50:06.642Z,66.40
2022-10-22T19:55:10.954Z,66.50
2022-10-22T20:00:13.959Z,66.30
2022-10-22T20:05:16.864Z,66.60
2022-10-22T20:10:23.642Z,66.40
2022-10-22T20:15:26.323Z,66.40
2022-10-22T20:20:29.611Z,66.10
2022-10-22T20:25:35.080Z,65.90
2022-10-22T20:30:41.473Z,66.10
2022-10-22T20:35:44.841Z,66.10
2022-10-22T20:40:48.765Z,66.10
2022-10-22T20:45:51.337Z,66.20
2022-10-22T20:50:54.709Z,66.10
2022-10-22T20:55:59.748Z,66.40
2022-10-22T21:01:09.315Z,66.50
2022-10-22T21:06:12.769Z,66.50
2022-10-22T21:11:16.743Z,66.40
2022-10-22T21:16:19.779Z,66.40
2022-10-22T21:21:22.370Z,66.30
2022-10-22T21:26:26.356Z,66.40
2022-10-22T21:31:29.187Z,66.40
2022-10-22T21:36:31.785Z,66.50
2022-10-22T21:41:37.301Z,66.30
2022-10-22T21:46:39.906Z,66.30
2022-10-22T21:51:43.630Z,66.50
2022-10-22T21:56:48.883Z,66.40
2022-10-22T22:01:51.470Z,66.20
2022-10-22T22:06:54.385Z,66.20
2022-10-22T22:11:58.378Z,66.20
2022-10-22T22:17:00.988Z,66.00
2022-10-22T22:22:03.713Z,66.10
2022-10-22T22:27:07.983Z,66.20
2022-10-22T22:32:14.030Z,66.20
2022-10-22T22:37:16.606Z,66.00
2022-10-22T22:42:20.572Z,66.00
2022-10-22T22:47:23.542Z,66.30
2022-10-22T22:52:26.119Z,66.10
2022-10-22T22:57:30.086Z,66.00
2022-10-22T23:02:32.670Z,65.90
2022-10-22T23:07:35.264Z,66.20
2022-10-22T23:12:39.314Z,66.00
2022-10-22T23:17:42.017Z,66.10
2022-10-22T23:22:44.869Z,66.00
2022-10-22T23:27:50.895Z,66.00
2022-10-22T23:32:53.465Z,66.00
2022-10-22T23:37:56.039Z,65.90
2022-10-22T23:42:59.965Z,67.00
2022-10-22T23:48:02.587Z,65.70
2022-10-22T23:53:05.889Z,66.90
2022-10-22T23:58:10.547Z,67.00
